sensor_id;sensor_type;location;lat;lon;timestamp;P1;durP1;ratioP1;P2;durP2;ratioP2
14722;SDS011;7452;55.594;12.986;2023-04-24T00:00:14;25.03;;;21.67;;
14722;SDS011;7452;55.594;12.986;2023-04-24T00:02:42;25.60;;;21.97;;
14722;SDS011;7452;55.594;12.986;2023-04-24T00:05:11;25.73;;;21.27;;
14722;SDS011;7452;55.594;12.986;2023-04-24T00:07:38;25.73;;;20.67;;
14722;SDS011;7452;55.594;12.986;2023-04-24T00:10:06;24.40;;;19.97;;
14722;SDS011;7452;55.594;12.986;2023-04-24T00:12:35;25.30;;;20.73;;
14722;SDS011;7452;55.594;12.986;2023-04-24T00:15:03;24.67;;;21.60;;
14722;SDS011;7452;55.594;12.986;2023-04-24T00:17:31;22.77;;;20.37;;
14722;SDS011;7452;55.594;12.986;2023-04-24T00:19:57;22.33;;;19.27;;
14722;SDS011;7452;55.594;12.986;2023-04-24T00:22:24;23.07;;;19.50;;
14722;SDS011;7452;55.594;12.986;2023-04-24T00:24:52;22.17;;;19.23;;
14722;SDS011;7452;55.594;12.986;2023-04-24T00:27:19;22.20;;;19.80;;
14722;SDS011;7452;55.594;12.986;2023-04-24T00:29:48;20.87;;;18.03;;
14722;SDS011;7452;55.594;12.986;2023-04-24T00:32:15;22.23;;;18.40;;
14722;SDS011;7452;55.594;12.986;2023-04-24T00:34:42;19.27;;;16.93;;
14722;SDS011;7452;55.594;12.986;2023-04-24T00:37:09;19.30;;;17.17;;
14722;SDS011;7452;55.594;12.986;2023-04-24T00:39:36;18.87;;;16.47;;
14722;SDS011;7452;55.594;12.986;2023-04-24T00:42:04;17.70;;;15.50;;
14722;SDS011;7452;55.594;12.986;2023-04-24T00:44:31;17.63;;;14.93;;
14722;SDS011;7452;55.594;12.986;2023-04-24T00:47:01;16.37;;;13.90;;
14722;SDS011;7452;55.594;12.986;2023-04-24T00:49:28;19.83;;;14.47;;
14722;SDS011;7452;55.594;12.986;2023-04-24T00:51:55;16.10;;;14.40;;
14722;SDS011;7452;55.594;12.986;2023-04-24T00:54:24;18.20;;;14.27;;
14722;SDS011;7452;55.594;12.986;2023-04-24T00:56:51;19.27;;;14.57;;
14722;SDS011;7452;55.594;12.986;2023-04-24T00:59:18;17.77;;;15.03;;
14722;SDS011;7452;55.594;12.986;2023-04-24T01:01:45;17.37;;;14.20;;
14722;SDS011;7452;55.594;12.986;2023-04-24T01:04:14;16.03;;;13.13;;
14722;SDS011;7452;55.594;12.986;2023-04-24T01:06:43;16.63;;;14.43;;
14722;SDS011;7452;55.594;12.986;2023-04-24T01:09:11;16.37;;;14.50;;
14722;SDS011;7452;55.594;12.986;2023-04-24T01:11:39;18.47;;;15.07;;
14722;SDS011;7452;55.594;12.986;2023-04-24T01:14:08;17.77;;;14.30;;
14722;SDS011;7452;55.594;12.986;2023-04-24T01:16:36;17.33;;;14.77;;
14722;SDS011;7452;55.594;12.986;2023-04-24T01:19:03;16.57;;;14.73;;
14722;SDS011;7452;55.594;12.986;2023-04-24T01:21:31;17.97;;;15.30;;
14722;SDS011;7452;55.594;12.986;2023-04-24T01:24:03;17.43;;;14.47;;
14722;SDS011;7452;55.594;12.986;2023-04-24T01:26:31;17.30;;;15.17;;
14722;SDS011;7452;55.594;12.986;2023-04-24T01:28:58;18.07;;;15.90;;
14722;SDS011;7452;55.594;12.986;2023-04-24T01:31:25;17.97;;;15.20;;
14722;SDS011;7452;55.594;12.986;2023-04-24T01:33:52;18.10;;;14.97;;
14722;SDS011;7452;55.594;12.986;2023-04-24T01:36:20;19.23;;;15.20;;
14722;SDS011;7452;55.594;12.986;2023-04-24T01:38:48;17.97;;;15.90;;
14722;SDS011;7452;55.594;12.986;2023-04-24T01:41:16;17.47;;;14.30;;
14722;SDS011;7452;55.594;12.986;2023-04-24T01:43:43;18.00;;;14.60;;
14722;SDS011;7452;55.594;12.986;2023-04-24T01:46:10;19.60;;;15.60;;
14722;SDS011;7452;55.594;12.986;2023-04-24T01:48:37;20.37;;;15.27;;
14722;SDS011;7452;55.594;12.986;2023-04-24T01:51:04;18.37;;;14.73;;
14722;SDS011;7452;55.594;12.986;2023-04-24T01:53:31;17.67;;;15.37;;
14722;SDS011;7452;55.594;12.986;2023-04-24T01:55:58;18.23;;;15.47;;
14722;SDS011;7452;55.594;12.986;2023-04-24T01:58:26;19.20;;;15.80;;
14722;SDS011;7452;55.594;12.986;2023-04-24T02:00:55;21.20;;;17.33;;
14722;SDS011;7452;55.594;12.986;2023-04-24T02:03:23;19.57;;;16.30;;
14722;SDS011;7452;55.594;12.986;2023-04-24T02:05:51;21.80;;;16.97;;
14722;SDS011;7452;55.594;12.986;2023-04-24T02:08:18;18.57;;;16.43;;
14722;SDS011;7452;55.594;12.986;2023-04-24T02:10:45;19.10;;;17.03;;
14722;SDS011;7452;55.594;12.986;2023-04-24T02:13:12;21.47;;;17.40;;
14722;SDS011;7452;55.594;12.986;2023-04-24T02:15:40;21.57;;;17.27;;
14722;SDS011;7452;55.594;12.986;2023-04-24T02:18:07;22.57;;;17.93;;
14722;SDS011;7452;55.594;12.986;2023-04-24T02:20:34;21.73;;;18.10;;
14722;SDS011;7452;55.594;12.986;2023-04-24T02:23:01;21.43;;;18.47;;
14722;SDS011;7452;55.594;12.986;2023-04-24T02:25:28;20.17;;;17.50;;
14722;SDS011;7452;55.594;12.986;2023-04-24T02:27:55;22.50;;;17.93;;
14722;SDS011;7452;55.594;12.986;2023-04-24T02:30:21;22.00;;;17.80;;
14722;SDS011;7452;55.594;12.986;2023-04-24T02:32:50;20.53;;;17.33;;
14722;SDS011;7452;55.594;12.986;2023-04-24T02:35:17;19.23;;;17.13;;
14722;SDS011;7452;55.594;12.986;2023-04-24T02:37:44;18.27;;;15.90;;
14722;SDS011;7452;55.594;12.986;2023-04-24T02:40:11;19.13;;;15.73;;
14722;SDS011;7452;55.594;12.986;2023-04-24T02:42:38;18.20;;;15.70;;
14722;SDS011;7452;55.594;12.986;2023-04-24T02:45:05;18.63;;;15.87;;
14722;SDS011;7452;55.594;12.986;2023-04-24T02:47:33;17.47;;;15.23;;
14722;SDS011;7452;55.594;12.986;2023-04-24T02:50:01;17.07;;;14.97;;
14722;SDS011;7452;55.594;12.986;2023-04-24T02:52:28;19.97;;;15.33;;
14722;SDS011;7452;55.594;12.986;2023-04-24T02:54:55;20.17;;;17.70;;
14722;SDS011;7452;55.594;12.986;2023-04-24T02:57:22;20.17;;;17.20;;
14722;SDS011;7452;55.594;12.986;2023-04-24T02:59:49;19.97;;;16.60;;
14722;SDS011;7452;55.594;12.986;2023-04-24T03:02:16;21.93;;;17.87;;
14722;SDS011;7452;55.594;12.986;2023-04-24T03:04:43;22.87;;;19.43;;
14722;SDS011;7452;55.594;12.986;2023-04-24T03:07:11;22.53;;;19.00;;
14722;SDS011;7452;55.594;12.986;2023-04-24T03:09:38;25.83;;;20.40;;
14722;SDS011;7452;55.594;12.986;2023-04-24T03:12:05;27.40;;;20.30;;
14722;SDS011;7452;55.594;12.986;2023-04-24T03:14:32;28.57;;;21.97;;
14722;SDS011;7452;55.594;12.986;2023-04-24T03:16:59;29.47;;;20.63;;
14722;SDS011;7452;55.594;12.986;2023-04-24T03:19:26;30.83;;;22.33;;
14722;SDS011;7452;55.594;12.986;2023-04-24T03:21:53;30.23;;;22.17;;
14722;SDS011;7452;55.594;12.986;2023-04-24T03:24:21;29.33;;;21.77;;
14722;SDS011;7452;55.594;12.986;2023-04-24T03:26:48;27.40;;;21.20;;
14722;SDS011;7452;55.594;12.986;2023-04-24T03:29:15;29.63;;;21.83;;
14722;SDS011;7452;55.594;12.986;2023-04-24T03:31:42;33.03;;;23.30;;
14722;SDS011;7452;55.594;12.986;2023-04-24T03:34:09;30.50;;;22.17;;
14722;SDS011;7452;55.594;12.986;2023-04-24T03:36:36;34.57;;;23.67;;
14722;SDS011;7452;55.594;12.986;2023-04-24T03:39:03;34.70;;;24.50;;
14722;SDS011;7452;55.594;12.986;2023-04-24T03:41:31;31.43;;;23.60;;
14722;SDS011;7452;55.594;12.986;2023-04-24T03:43:58;31.20;;;23.77;;
14722;SDS011;7452;55.594;12.986;2023-04-24T03:46:25;28.63;;;22.70;;
14722;SDS011;7452;55.594;12.986;2023-04-24T03:48:52;29.43;;;23.17;;
14722;SDS011;7452;55.594;12.986;2023-04-24T03:51:19;31.23;;;24.47;;
14722;SDS011;7452;55.594;12.986;2023-04-24T03:53:46;30.93;;;24.43;;
14722;SDS011;7452;55.594;12.986;2023-04-24T03:56:13;31.73;;;24.43;;
14722;SDS011;7452;55.594;12.986;2023-04-24T03:58:42;35.27;;;25.57;;
14722;SDS011;7452;55.594;12.986;2023-04-24T04:01:08;34.80;;;25.80;;
14722;SDS011;7452;55.594;12.986;2023-04-24T04:03:36;32.90;;;25.53;;
14722;SDS011;7452;55.594;12.986;2023-04-24T04:06:04;32.80;;;24.73;;
14722;SDS011;7452;55.594;12.986;2023-04-24T04:08:31;36.33;;;26.67;;
14722;SDS011;7452;55.594;12.986;2023-04-24T04:10:58;36.77;;;24.90;;
14722;SDS011;7452;55.594;12.986;2023-04-24T04:13:24;34.90;;;24.87;;
14722;SDS011;7452;55.594;12.986;2023-04-24T04:15:53;33.60;;;25.03;;
14722;SDS011;7452;55.594;12.986;2023-04-24T04:18:20;30.47;;;23.77;;
14722;SDS011;7452;55.594;12.986;2023-04-24T04:20:46;33.53;;;24.87;;
14722;SDS011;7452;55.594;12.986;2023-04-24T04:23:13;34.87;;;24.60;;
14722;SDS011;7452;55.594;12.986;2023-04-24T04:25:40;32.67;;;24.47;;
14722;SDS011;7452;55.594;12.986;2023-04-24T04:28:07;34.93;;;24.53;;
14722;SDS011;7452;55.594;12.986;2023-04-24T04:30:34;33.07;;;24.57;;
14722;SDS011;7452;55.594;12.986;2023-04-24T04:33:04;32.30;;;24.37;;
14722;SDS011;7452;55.594;12.986;2023-04-24T04:35:31;33.17;;;24.07;;
14722;SDS011;7452;55.594;12.986;2023-04-24T04:37:58;31.57;;;23.50;;
14722;SDS011;7452;55.594;12.986;2023-04-24T04:40:25;32.77;;;23.50;;
14722;SDS011;7452;55.594;12.986;2023-04-24T04:42:53;31.90;;;23.20;;
14722;SDS011;7452;55.594;12.986;2023-04-24T04:45:20;31.23;;;23.63;;
14722;SDS011;7452;55.594;12.986;2023-04-24T04:47:49;31.40;;;23.60;;
14722;SDS011;7452;55.594;12.986;2023-04-24T04:50:17;29.17;;;22.30;;
14722;SDS011;7452;55.594;12.986;2023-04-24T04:52:44;28.93;;;23.10;;
14722;SDS011;7452;55.594;12.986;2023-04-24T04:55:11;30.50;;;21.93;;
14722;SDS011;7452;55.594;12.986;2023-04-24T04:57:39;30.13;;;22.77;;
14722;SDS011;7452;55.594;12.986;2023-04-24T05:00:07;28.00;;;21.70;;
14722;SDS011;7452;55.594;12.986;2023-04-24T05:02:36;30.20;;;22.40;;
14722;SDS011;7452;55.594;12.986;2023-04-24T05:05:03;27.33;;;21.57;;
14722;SDS011;7452;55.594;12.986;2023-04-24T05:07:32;29.20;;;21.67;;
14722;SDS011;7452;55.594;12.986;2023-04-24T05:09:58;29.53;;;22.07;;
14722;SDS011;7452;55.594;12.986;2023-04-24T05:12:25;24.87;;;19.93;;
14722;SDS011;7452;55.594;12.986;2023-04-24T05:14:52;25.67;;;20.97;;
14722;SDS011;7452;55.594;12.986;2023-04-24T05:17:20;27.13;;;20.87;;
14722;SDS011;7452;55.594;12.986;2023-04-24T05:19:47;25.07;;;19.53;;
14722;SDS011;7452;55.594;12.986;2023-04-24T05:22:14;26.53;;;20.47;;
14722;SDS011;7452;55.594;12.986;2023-04-24T05:24:43;24.27;;;19.17;;
14722;SDS011;7452;55.594;12.986;2023-04-24T05:27:10;24.30;;;19.77;;
14722;SDS011;7452;55.594;12.986;2023-04-24T05:29:37;26.27;;;19.63;;
14722;SDS011;7452;55.594;12.986;2023-04-24T05:32:05;26.20;;;20.53;;
14722;SDS011;7452;55.594;12.986;2023-04-24T05:34:32;24.80;;;20.00;;
14722;SDS011;7452;55.594;12.986;2023-04-24T05:36:59;23.43;;;19.33;;
14722;SDS011;7452;55.594;12.986;2023-04-24T05:39:26;21.83;;;19.13;;
14722;SDS011;7452;55.594;12.986;2023-04-24T05:41:54;24.50;;;19.80;;
14722;SDS011;7452;55.594;12.986;2023-04-24T05:44:23;22.33;;;19.50;;
14722;SDS011;7452;55.594;12.986;2023-04-24T05:46:49;21.80;;;18.77;;
14722;SDS011;7452;55.594;12.986;2023-04-24T05:49:16;21.27;;;18.80;;
14722;SDS011;7452;55.594;12.986;2023-04-24T05:51:43;20.53;;;18.17;;
14722;SDS011;7452;55.594;12.986;2023-04-24T05:54:10;21.23;;;18.73;;
14722;SDS011;7452;55.594;12.986;2023-04-24T05:56:37;20.60;;;17.70;;
14722;SDS011;7452;55.594;12.986;2023-04-24T05:59:06;20.63;;;17.80;;
14722;SDS011;7452;55.594;12.986;2023-04-24T06:01:33;20.10;;;17.70;;
14722;SDS011;7452;55.594;12.986;2023-04-24T06:04:01;20.10;;;16.70;;
14722;SDS011;7452;55.594;12.986;2023-04-24T06:06:28;17.87;;;15.87;;
14722;SDS011;7452;55.594;12.986;2023-04-24T06:08:56;17.13;;;15.33;;
14722;SDS011;7452;55.594;12.986;2023-04-24T06:11:23;17.53;;;15.67;;
14722;SDS011;7452;55.594;12.986;2023-04-24T06:13:51;17.07;;;15.37;;
14722;SDS011;7452;55.594;12.986;2023-04-24T06:16:19;16.07;;;14.37;;
14722;SDS011;7452;55.594;12.986;2023-04-24T06:18:46;15.73;;;14.13;;
14722;SDS011;7452;55.594;12.986;2023-04-24T06:21:13;14.40;;;13.00;;
14722;SDS011;7452;55.594;12.986;2023-04-24T06:23:41;14.03;;;12.70;;
14722;SDS011;7452;55.594;12.986;2023-04-24T06:26:08;11.53;;;10.40;;
14722;SDS011;7452;55.594;12.986;2023-04-24T06:28:35;9.90;;;8.90;;
14722;SDS011;7452;55.594;12.986;2023-04-24T06:31:01;8.47;;;7.67;;
14722;SDS011;7452;55.594;12.986;2023-04-24T06:33:30;8.03;;;7.30;;
14722;SDS011;7452;55.594;12.986;2023-04-24T06:35:56;8.57;;;7.67;;
14722;SDS011;7452;55.594;12.986;2023-04-24T06:38:23;6.83;;;6.23;;
14722;SDS011;7452;55.594;12.986;2023-04-24T06:40:50;9.13;;;7.00;;
14722;SDS011;7452;55.594;12.986;2023-04-24T06:43:17;6.67;;;5.87;;
14722;SDS011;7452;55.594;12.986;2023-04-24T06:45:45;7.20;;;5.93;;
14722;SDS011;7452;55.594;12.986;2023-04-24T06:48:12;5.90;;;5.30;;
14722;SDS011;7452;55.594;12.986;2023-04-24T06:50:40;5.10;;;4.60;;
14722;SDS011;7452;55.594;12.986;2023-04-24T06:53:07;5.77;;;5.17;;
14722;SDS011;7452;55.594;12.986;2023-04-24T06:55:36;6.17;;;4.80;;
14722;SDS011;7452;55.594;12.986;2023-04-24T06:58:03;6.43;;;4.07;;
14722;SDS011;7452;55.594;12.986;2023-04-24T07:00:31;4.20;;;3.80;;
14722;SDS011;7452;55.594;12.986;2023-04-24T07:02:57;4.40;;;3.67;;
14722;SDS011;7452;55.594;12.986;2023-04-24T07:05:24;6.33;;;3.97;;
14722;SDS011;7452;55.594;12.986;2023-04-24T07:07:53;4.80;;;4.03;;
14722;SDS011;7452;55.594;12.986;2023-04-24T07:10:20;4.30;;;3.73;;
14722;SDS011;7452;55.594;12.986;2023-04-24T07:12:47;4.87;;;3.70;;
14722;SDS011;7452;55.594;12.986;2023-04-24T07:15:13;4.53;;;3.90;;
14722;SDS011;7452;55.594;12.986;2023-04-24T07:17:41;4.70;;;4.20;;
14722;SDS011;7452;55.594;12.986;2023-04-24T07:20:09;6.33;;;4.47;;
14722;SDS011;7452;55.594;12.986;2023-04-24T07:22:37;5.83;;;5.23;;
14722;SDS011;7452;55.594;12.986;2023-04-24T07:25:06;5.23;;;4.73;;
14722;SDS011;7452;55.594;12.986;2023-04-24T07:27:34;5.37;;;4.40;;
14722;SDS011;7452;55.594;12.986;2023-04-24T07:30:02;6.03;;;5.47;;
14722;SDS011;7452;55.594;12.986;2023-04-24T07:32:29;6.83;;;5.17;;
14722;SDS011;7452;55.594;12.986;2023-04-24T07:34:56;5.97;;;5.10;;
14722;SDS011;7452;55.594;12.986;2023-04-24T07:37:23;6.57;;;5.80;;
14722;SDS011;7452;55.594;12.986;2023-04-24T07:39:50;5.77;;;5.27;;
14722;SDS011;7452;55.594;12.986;2023-04-24T07:42:18;5.80;;;5.20;;
14722;SDS011;7452;55.594;12.986;2023-04-24T07:44:45;5.23;;;4.80;;
14722;SDS011;7452;55.594;12.986;2023-04-24T07:47:12;5.30;;;4.80;;
14722;SDS011;7452;55.594;12.986;2023-04-24T07:49:40;6.27;;;5.77;;
14722;SDS011;7452;55.594;12.986;2023-04-24T07:52:08;5.80;;;5.07;;
14722;SDS011;7452;55.594;12.986;2023-04-24T07:54:35;5.50;;;5.00;;
14722;SDS011;7452;55.594;12.986;2023-04-24T07:57:02;6.97;;;5.23;;
14722;SDS011;7452;55.594;12.986;2023-04-24T07:59:33;5.27;;;4.77;;
14722;SDS011;7452;55.594;12.986;2023-04-24T08:02:00;5.13;;;4.67;;
14722;SDS011;7452;55.594;12.986;2023-04-24T08:04:27;4.80;;;4.40;;
14722;SDS011;7452;55.594;12.986;2023-04-24T08:06:54;5.20;;;4.70;;
14722;SDS011;7452;55.594;12.986;2023-04-24T08:09:21;5.87;;;4.73;;
14722;SDS011;7452;55.594;12.986;2023-04-24T08:11:47;5.30;;;4.53;;
14722;SDS011;7452;55.594;12.986;2023-04-24T08:14:14;5.83;;;4.90;;
14722;SDS011;7452;55.594;12.986;2023-04-24T08:16:43;5.37;;;4.53;;
14722;SDS011;7452;55.594;12.986;2023-04-24T08:19:10;4.80;;;4.40;;
14722;SDS011;7452;55.594;12.986;2023-04-24T08:21:37;5.67;;;4.53;;
14722;SDS011;7452;55.594;12.986;2023-04-24T08:24:04;6.77;;;4.57;;
14722;SDS011;7452;55.594;12.986;2023-04-24T08:26:32;5.10;;;4.60;;
14722;SDS011;7452;55.594;12.986;2023-04-24T08:28:59;5.20;;;4.70;;
14722;SDS011;7452;55.594;12.986;2023-04-24T08:31:26;5.53;;;4.47;;
14722;SDS011;7452;55.594;12.986;2023-04-24T08:33:55;5.43;;;4.83;;
14722;SDS011;7452;55.594;12.986;2023-04-24T08:36:22;5.93;;;4.53;;
14722;SDS011;7452;55.594;12.986;2023-04-24T08:38:48;4.63;;;4.23;;
14722;SDS011;7452;55.594;12.986;2023-04-24T08:41:15;4.50;;;4.10;;
14722;SDS011;7452;55.594;12.986;2023-04-24T08:43:45;5.97;;;4.87;;
14722;SDS011;7452;55.594;12.986;2023-04-24T08:46:12;6.20;;;4.47;;
14722;SDS011;7452;55.594;12.986;2023-04-24T08:48:41;5.23;;;4.17;;
14722;SDS011;7452;55.594;12.986;2023-04-24T08:51:09;5.27;;;4.13;;
14722;SDS011;7452;55.594;12.986;2023-04-24T08:53:36;5.73;;;4.40;;
14722;SDS011;7452;55.594;12.986;2023-04-24T08:56:03;5.70;;;4.23;;
14722;SDS011;7452;55.594;12.986;2023-04-24T08:58:31;5.73;;;4.70;;
14722;SDS011;7452;55.594;12.986;2023-04-24T09:00:59;5.93;;;4.30;;
14722;SDS011;7452;55.594;12.986;2023-04-24T09:03:27;4.87;;;4.27;;
14722;SDS011;7452;55.594;12.986;2023-04-24T09:05:55;4.93;;;4.43;;
14722;SDS011;7452;55.594;12.986;2023-04-24T09:08:25;5.30;;;4.30;;
14722;SDS011;7452;55.594;12.986;2023-04-24T09:10:54;4.60;;;4.10;;
14722;SDS011;7452;55.594;12.986;2023-04-24T09:13:23;5.17;;;4.07;;
14722;SDS011;7452;55.594;12.986;2023-04-24T09:15:50;4.50;;;4.10;;
14722;SDS011;7452;55.594;12.986;2023-04-24T09:18:18;4.60;;;4.20;;
14722;SDS011;7452;55.594;12.986;2023-04-24T09:20:58;4.70;;;4.30;;
14722;SDS011;7452;55.594;12.986;2023-04-24T09:23:31;4.47;;;4.07;;
14722;SDS011;7452;55.594;12.986;2023-04-24T09:25:59;4.90;;;4.37;;
14722;SDS011;7452;55.594;12.986;2023-04-24T09:31:06;4.50;;;4.10;;
14722;SDS011;7452;55.594;12.986;2023-04-24T09:33:34;4.60;;;4.20;;
14722;SDS011;7452;55.594;12.986;2023-04-24T09:36:01;4.43;;;4.03;;
14722;SDS011;7452;55.594;12.986;2023-04-24T09:38:34;4.30;;;3.93;;
14722;SDS011;7452;55.594;12.986;2023-04-24T09:41:02;4.40;;;4.00;;
14722;SDS011;7452;55.594;12.986;2023-04-24T09:43:30;4.57;;;4.17;;
14722;SDS011;7452;55.594;12.986;2023-04-24T09:45:58;4.83;;;4.33;;
14722;SDS011;7452;55.594;12.986;2023-04-24T09:48:30;4.87;;;4.10;;
14722;SDS011;7452;55.594;12.986;2023-04-24T09:50:58;4.30;;;3.90;;
14722;SDS011;7452;55.594;12.986;2023-04-24T09:53:25;4.03;;;3.43;;
14722;SDS011;7452;55.594;12.986;2023-04-24T09:55:55;3.53;;;3.23;;
14722;SDS011;7452;55.594;12.986;2023-04-24T09:58:25;3.70;;;3.40;;
14722;SDS011;7452;55.594;12.986;2023-04-24T10:00:53;4.00;;;3.40;;
14722;SDS011;7452;55.594;12.986;2023-04-24T10:03:24;3.97;;;3.63;;
14722;SDS011;7452;55.594;12.986;2023-04-24T10:05:53;3.80;;;3.20;;
14722;SDS011;7452;55.594;12.986;2023-04-24T10:08:20;4.80;;;3.80;;
14722;SDS011;7452;55.594;12.986;2023-04-24T10:10:47;3.77;;;3.07;;
14722;SDS011;7452;55.594;12.986;2023-04-24T10:13:16;3.87;;;3.53;;
14722;SDS011;7452;55.594;12.986;2023-04-24T10:15:42;4.00;;;3.70;;
14722;SDS011;7452;55.594;12.986;2023-04-24T10:18:10;3.77;;;3.40;;
14722;SDS011;7452;55.594;12.986;2023-04-24T10:20:37;3.67;;;3.37;;
14722;SDS011;7452;55.594;12.986;2023-04-24T10:23:06;4.10;;;3.50;;
14722;SDS011;7452;55.594;12.986;2023-04-24T10:25:33;4.30;;;3.57;;
14722;SDS011;7452;55.594;12.986;2023-04-24T10:28:01;4.57;;;3.33;;
14722;SDS011;7452;55.594;12.986;2023-04-24T10:30:30;4.00;;;3.57;;
14722;SDS011;7452;55.594;12.986;2023-04-24T10:33:01;4.17;;;3.87;;
14722;SDS011;7452;55.594;12.986;2023-04-24T10:35:29;5.67;;;4.20;;
14722;SDS011;7452;55.594;12.986;2023-04-24T10:37:58;4.57;;;4.17;;
14722;SDS011;7452;55.594;12.986;2023-04-24T10:40:30;3.90;;;3.60;;
14722;SDS011;7452;55.594;12.986;2023-04-24T10:42:59;5.03;;;4.60;;
14722;SDS011;7452;55.594;12.986;2023-04-24T10:45:28;5.77;;;4.33;;
14722;SDS011;7452;55.594;12.986;2023-04-24T10:47:56;5.30;;;4.80;;
14722;SDS011;7452;55.594;12.986;2023-04-24T10:50:26;7.87;;;4.73;;
14722;SDS011;7452;55.594;12.986;2023-04-24T10:52:55;5.93;;;4.50;;
14722;SDS011;7452;55.594;12.986;2023-04-24T10:58:21;4.57;;;4.07;;
14722;SDS011;7452;55.594;12.986;2023-04-24T11:00:56;5.13;;;4.63;;
14722;SDS011;7452;55.594;12.986;2023-04-24T11:03:24;5.67;;;4.20;;
14722;SDS011;7452;55.594;12.986;2023-04-24T11:05:55;5.07;;;4.50;;
14722;SDS011;7452;55.594;12.986;2023-04-24T11:08:24;5.57;;;4.20;;
14722;SDS011;7452;55.594;12.986;2023-04-24T11:10:59;5.53;;;4.20;;
14722;SDS011;7452;55.594;12.986;2023-04-24T11:16:30;4.57;;;4.13;;
14722;SDS011;7452;55.594;12.986;2023-04-24T11:19:02;5.23;;;4.50;;
14722;SDS011;7452;55.594;12.986;2023-04-24T11:21:31;4.50;;;4.10;;
14722;SDS011;7452;55.594;12.986;2023-04-24T11:23:58;4.37;;;3.97;;
14722;SDS011;7452;55.594;12.986;2023-04-24T11:26:47;5.90;;;4.37;;
14722;SDS011;7452;55.594;12.986;2023-04-24T11:29:14;4.82;;;4.25;;
14722;SDS011;7452;55.594;12.986;2023-04-24T11:31:44;4.53;;;4.13;;
14722;SDS011;7452;55.594;12.986;2023-04-24T11:34:14;5.60;;;4.43;;
14722;SDS011;7452;55.594;12.986;2023-04-24T11:36:42;4.63;;;4.23;;
14722;SDS011;7452;55.594;12.986;2023-04-24T11:39:10;5.00;;;4.30;;
14722;SDS011;7452;55.594;12.986;2023-04-24T11:41:37;4.90;;;4.50;;
14722;SDS011;7452;55.594;12.986;2023-04-24T11:44:05;4.57;;;4.17;;
14722;SDS011;7452;55.594;12.986;2023-04-24T11:46:33;5.83;;;4.40;;
14722;SDS011;7452;55.594;12.986;2023-04-24T11:49:01;5.20;;;4.70;;
14722;SDS011;7452;55.594;12.986;2023-04-24T11:51:28;5.40;;;4.83;;
14722;SDS011;7452;55.594;12.986;2023-04-24T11:53:56;5.80;;;5.30;;
14722;SDS011;7452;55.594;12.986;2023-04-24T11:56:24;5.77;;;4.80;;
14722;SDS011;7452;55.594;12.986;2023-04-24T11:58:51;5.23;;;4.73;;
14722;SDS011;7452;55.594;12.986;2023-04-24T12:01:19;4.90;;;4.50;;
14722;SDS011;7452;55.594;12.986;2023-04-24T12:03:47;5.20;;;4.80;;
14722;SDS011;7452;55.594;12.986;2023-04-24T12:06:17;4.37;;;4.07;;
14722;SDS011;7452;55.594;12.986;2023-04-24T12:08:47;5.23;;;4.80;;
14722;SDS011;7452;55.594;12.986;2023-04-24T12:11:15;4.43;;;4.03;;
14722;SDS011;7452;55.594;12.986;2023-04-24T12:13:45;3.90;;;3.60;;
14722;SDS011;7452;55.594;12.986;2023-04-24T12:16:12;6.53;;;4.17;;
14722;SDS011;7452;55.594;12.986;2023-04-24T12:18:43;4.45;;;3.60;;
14722;SDS011;7452;55.594;12.986;2023-04-24T12:21:18;5.23;;;4.10;;
14722;SDS011;7452;55.594;12.986;2023-04-24T12:23:46;5.70;;;3.77;;
14722;SDS011;7452;55.594;12.986;2023-04-24T12:26:16;6.13;;;3.67;;
14722;SDS011;7452;55.594;12.986;2023-04-24T12:28:46;4.50;;;3.30;;
14722;SDS011;7452;55.594;12.986;2023-04-24T12:31:14;7.67;;;3.33;;
14722;SDS011;7452;55.594;12.986;2023-04-24T12:33:41;6.03;;;3.17;;
14722;SDS011;7452;55.594;12.986;2023-04-24T12:36:09;3.65;;;2.90;;
14722;SDS011;7452;55.594;12.986;2023-04-24T12:38:39;2.83;;;2.63;;
14722;SDS011;7452;55.594;12.986;2023-04-24T12:41:11;6.68;;;3.30;;
14722;SDS011;7452;55.594;12.986;2023-04-24T12:43:50;5.70;;;3.05;;
14722;SDS011;7452;55.594;12.986;2023-04-24T12:46:18;2.70;;;2.50;;
14722;SDS011;7452;55.594;12.986;2023-04-24T12:48:45;3.38;;;2.45;;
14722;SDS011;7452;55.594;12.986;2023-04-24T12:51:12;3.70;;;2.40;;
14722;SDS011;7452;55.594;12.986;2023-04-24T12:53:40;2.47;;;2.10;;
14722;SDS011;7452;55.594;12.986;2023-04-24T12:56:07;2.72;;;2.50;;
14722;SDS011;7452;55.594;12.986;2023-04-24T12:58:34;2.17;;;2.05;;
14722;SDS011;7452;55.594;12.986;2023-04-24T13:01:01;2.30;;;2.20;;
14722;SDS011;7452;55.594;12.986;2023-04-24T13:03:27;2.85;;;2.65;;
14722;SDS011;7452;55.594;12.986;2023-04-24T13:05:54;2.50;;;2.30;;
14722;SDS011;7452;55.594;12.986;2023-04-24T13:08:21;2.50;;;2.30;;
14722;SDS011;7452;55.594;12.986;2023-04-24T13:10:49;3.85;;;2.40;;
14722;SDS011;7452;55.594;12.986;2023-04-24T13:13:17;2.40;;;2.20;;
14722;SDS011;7452;55.594;12.986;2023-04-24T13:15:43;2.28;;;2.08;;
14722;SDS011;7452;55.594;12.986;2023-04-24T13:18:10;2.60;;;2.40;;
14722;SDS011;7452;55.594;12.986;2023-04-24T13:20:37;2.35;;;2.15;;
14722;SDS011;7452;55.594;12.986;2023-04-24T13:23:05;2.58;;;2.38;;
14722;SDS011;7452;55.594;12.986;2023-04-24T13:25:34;3.28;;;2.40;;
14722;SDS011;7452;55.594;12.986;2023-04-24T13:28:03;2.67;;;2.37;;
14722;SDS011;7452;55.594;12.986;2023-04-24T13:30:30;2.87;;;2.67;;
14722;SDS011;7452;55.594;12.986;2023-04-24T13:32:57;2.90;;;2.70;;
14722;SDS011;7452;55.594;12.986;2023-04-24T13:35:24;2.40;;;2.30;;
14722;SDS011;7452;55.594;12.986;2023-04-24T13:37:51;3.03;;;2.73;;
14722;SDS011;7452;55.594;12.986;2023-04-24T13:40:18;2.60;;;2.40;;
14722;SDS011;7452;55.594;12.986;2023-04-24T13:42:45;2.90;;;2.70;;
14722;SDS011;7452;55.594;12.986;2023-04-24T13:45:13;2.93;;;2.63;;
14722;SDS011;7452;55.594;12.986;2023-04-24T13:47:40;2.93;;;2.70;;
14722;SDS011;7452;55.594;12.986;2023-04-24T13:50:07;2.77;;;2.57;;
14722;SDS011;7452;55.594;12.986;2023-04-24T13:52:35;3.47;;;3.17;;
14722;SDS011;7452;55.594;12.986;2023-04-24T13:55:02;3.23;;;2.90;;
14722;SDS011;7452;55.594;12.986;2023-04-24T13:57:28;3.10;;;2.80;;
14722;SDS011;7452;55.594;12.986;2023-04-24T13:59:57;3.13;;;2.57;;
14722;SDS011;7452;55.594;12.986;2023-04-24T14:02:27;2.87;;;2.40;;
14722;SDS011;7452;55.594;12.986;2023-04-24T14:04:56;3.03;;;2.30;;
14722;SDS011;7452;55.594;12.986;2023-04-24T14:07:22;2.63;;;2.20;;
14722;SDS011;7452;55.594;12.986;2023-04-24T14:09:49;2.73;;;2.50;;
14722;SDS011;7452;55.594;12.986;2023-04-24T14:12:16;2.50;;;2.30;;
14722;SDS011;7452;55.594;12.986;2023-04-24T14:14:45;2.50;;;2.30;;
14722;SDS011;7452;55.594;12.986;2023-04-24T14:17:13;2.80;;;2.20;;
14722;SDS011;7452;55.594;12.986;2023-04-24T14:19:41;2.50;;;2.30;;
14722;SDS011;7452;55.594;12.986;2023-04-24T14:22:08;1.90;;;1.80;;
14722;SDS011;7452;55.594;12.986;2023-04-24T14:24:35;2.33;;;2.07;;
14722;SDS011;7452;55.594;12.986;2023-04-24T14:27:02;1.90;;;1.80;;
14722;SDS011;7452;55.594;12.986;2023-04-24T14:29:29;2.27;;;2.07;;
14722;SDS011;7452;55.594;12.986;2023-04-24T14:31:56;2.27;;;1.87;;
14722;SDS011;7452;55.594;12.986;2023-04-24T14:34:23;2.13;;;1.83;;
14722;SDS011;7452;55.594;12.986;2023-04-24T14:36:51;2.07;;;1.60;;
14722;SDS011;7452;55.594;12.986;2023-04-24T14:39:19;3.60;;;1.80;;
14722;SDS011;7452;55.594;12.986;2023-04-24T14:41:46;2.03;;;1.80;;
14722;SDS011;7452;55.594;12.986;2023-04-24T14:44:13;2.80;;;1.90;;
14722;SDS011;7452;55.594;12.986;2023-04-24T14:46:40;2.30;;;1.57;;